الصفحة الرئيسية
METAR-TAF:

METAR-TAF

مطار :

مطار الرباط سلا

الرباط, المغرب

دائرة عرض: 34-03N, خط طول: 006-46W, ارتفاع: 84 متر

مراقبة الطقس الحالي

تاريخ ووقت الإصدار 30 دقيقة قبل الساعة 03:00UTC
ريح 4 عقدة من الجنوب/الجنوب الغربي
درجة الحرارة 19°درجة مئوية
الرطوبة 88%
ضغط 1016 hPa
الرؤية: 4300 متر
غيوم قليلة على ارتفاع 300 قدم

METAR: GMME 240300Z 20004KT 4300 FEW003 19/17 Q1016

زمن: 04:30 (03:30 UTC)

توقعات

تاريخ ووقت الإصدار 4ساعات و 30 دقيقة قبل الساعة 23:00UTC
التوقعات صالحة من24 الساعة 00 UTC إلى 25 الساعة 06 UTC
ريح 4 عقدة من الجنوب/الجنوب الغربي
الرؤية: 8000 متر
نظرية الاحتمالات 40% :
مؤقت
من 24 الساعة 01 UTC إلى 24 الساعة 07 UTC
الرؤية: 3000 متر
غيوم مفككة على ارتفاع 1300 قدم
غشاء
نظرية الاحتمالات 40% :
مؤقت
من 25 الساعة 03 UTC إلى 25 الساعة 06 UTC
الرؤية: 3000 متر
غيوم مفككة على ارتفاع 1500 قدم
غشاء

TAF: GMME 232300Z 2400/2506 21004KT 8000 NSC PROB40 TEMPO 2401/2407 3000 BR BKN013 PROB40 TEMPO 2503/2506 3000 BR BKN015

أرصاد الطقس والتوقعات من أكثر من 4000 مطار (تقارير الطقس للمطار METAR والتنبؤ بالطقس بالمطارTAF).

المحطات المتاحة هي النقط الصفراء والحمراء على الخريطة.

حرك المؤشر فوق النقطة لمعرفة اسم المحطة.

ثم انقر لمعرفة أرصاد وتوقعات الطقس.

لتغيير الخارطة: اضغط على الأزرار الخضراء مع رمز الصليب الأسود للتكبير. على الزر الأخضر مع شرطة للتصغير، أو على الأسهم الخضراء للخرائط المجاورة.


METAR-TAF: